createdAt,value
2023-02-18T00:01:45.427Z,2.87
2023-02-18T00:04:13.843Z,3.00
2023-02-18T00:06:42.179Z,3.30
2023-02-18T00:09:11.318Z,3.10
2023-02-18T00:11:40.526Z,2.77
2023-02-18T00:14:15.776Z,2.17
2023-02-18T00:16:45.169Z,3.10
2023-02-18T00:19:18.105Z,2.70
2023-02-18T00:21:46.995Z,2.50
2023-02-18T00:24:17.294Z,2.73
2023-02-18T00:26:46.336Z,2.93
2023-02-18T00:29:16.056Z,3.20
2023-02-18T00:31:44.559Z,2.63
2023-02-18T00:34:14.132Z,2.20
2023-02-18T00:36:43.119Z,2.63
2023-02-18T00:39:12.795Z,3.00
2023-02-18T00:41:41.792Z,3.07
2023-02-18T00:44:10.378Z,2.60
2023-02-18T00:46:40.558Z,3.07
2023-02-18T00:49:09.662Z,2.93
2023-02-18T00:51:38.381Z,3.00
2023-02-18T00:54:07.003Z,2.77
2023-02-18T00:56:35.557Z,2.60
2023-02-18T00:59:03.996Z,2.60
2023-02-18T01:01:32.481Z,2.90
2023-02-18T01:04:02.413Z,2.97
2023-02-18T01:06:30.764Z,3.00
2023-02-18T01:08:59.077Z,3.17
2023-02-18T01:11:27.501Z,2.73
2023-02-18T01:13:56.142Z,2.83
2023-02-18T01:16:25.251Z,2.70
2023-02-18T01:18:53.967Z,2.47
2023-02-18T01:21:23.645Z,3.00
2023-02-18T01:23:51.946Z,2.50
2023-02-18T01:26:20.375Z,2.90
2023-02-18T01:28:48.743Z,3.03
2023-02-18T01:31:19.015Z,2.60
2023-02-18T01:33:47.544Z,2.43
2023-02-18T01:36:15.906Z,2.63
2023-02-18T01:38:45.529Z,3.07
2023-02-18T01:41:13.954Z,2.80
2023-02-18T01:43:42.224Z,3.07
2023-02-18T01:46:20.612Z,2.73
2023-02-18T01:48:54.136Z,2.73
2023-02-18T01:51:29.629Z,2.70
2023-02-18T01:54:04.923Z,2.60
2023-02-18T01:56:39.477Z,2.50
2023-02-18T01:59:11.811Z,3.00
2023-02-18T02:01:44.150Z,3.07
2023-02-18T02:04:12.814Z,3.30
2023-02-18T02:06:41.163Z,3.33
2023-02-18T02:09:14.955Z,3.40
2023-02-18T02:12:16.160Z,3.13
2023-02-18T02:15:08.022Z,3.67
2023-02-18T02:17:49.590Z,2.93
2023-02-18T02:20:54.881Z,2.93
2023-02-18T02:24:11.586Z,3.07
2023-02-18T02:27:13.227Z,2.60
2023-02-18T02:30:43.647Z,3.53
2023-02-18T02:33:52.640Z,2.97
2023-02-18T02:36:28.565Z,3.60
2023-02-18T02:39:04.724Z,3.30
2023-02-18T02:41:45.825Z,3.97
2023-02-18T02:44:22.504Z,3.97
2023-02-18T02:46:57.010Z,4.00
2023-02-18T02:49:37.897Z,3.83
2023-02-18T02:52:14.296Z,3.60
2023-02-18T02:54:42.752Z,4.23
2023-02-18T02:57:50.890Z,4.67
2023-02-18T03:00:25.178Z,4.77
2023-02-18T03:03:09.519Z,4.80
2023-02-18T03:05:53.890Z,4.77
2023-02-18T03:08:36.400Z,4.20
2023-02-18T03:11:08.513Z,4.60
2023-02-18T03:13:58.760Z,4.23
2023-02-18T03:16:35.793Z,5.23
2023-02-18T03:19:12.979Z,5.10
2023-02-18T03:21:47.395Z,5.67
2023-02-18T03:24:21.597Z,6.03
2023-02-18T03:26:53.823Z,6.63
2023-02-18T03:29:24.644Z,7.53
2023-02-18T03:31:59.225Z,7.10
2023-02-18T03:34:31.699Z,6.77
2023-02-18T03:37:01.950Z,7.57
2023-02-18T03:39:32.429Z,8.33
2023-02-18T03:42:01.279Z,8.03
2023-02-18T03:44:33.099Z,8.90
2023-02-18T03:47:01.524Z,9.70
2023-02-18T03:49:29.807Z,9.53
2023-02-18T03:51:58.133Z,10.77
2023-02-18T03:54:26.457Z,11.87
2023-02-18T03:56:54.799Z,11.17
2023-02-18T03:59:23.188Z,11.30
2023-02-18T04:01:52.840Z,11.70
2023-02-18T04:04:21.245Z,11.13
2023-02-18T04:06:49.523Z,11.90
2023-02-18T04:09:19.015Z,11.13
2023-02-18T04:11:47.375Z,11.27
2023-02-18T04:14:16.227Z,11.80
2023-02-18T04:16:44.608Z,11.83
2023-02-18T04:19:14.272Z,11.10
2023-02-18T04:21:42.645Z,12.63
2023-02-18T04:24:10.889Z,12.23
2023-02-18T04:26:39.211Z,12.23
2023-02-18T04:29:07.848Z,12.63
2023-02-18T04:31:36.276Z,12.70
2023-02-18T04:34:05.073Z,12.77
2023-02-18T04:36:34.823Z,13.67
2023-02-18T04:39:03.393Z,13.47
2023-02-18T04:41:31.907Z,13.20
2023-02-18T04:44:00.695Z,13.23
2023-02-18T04:46:29.597Z,14.03
2023-02-18T04:48:57.836Z,13.60
2023-02-18T04:51:26.209Z,14.13
2023-02-18T04:53:55.873Z,14.23
2023-02-18T04:56:24.159Z,15.10
2023-02-18T04:58:52.433Z,15.57
2023-02-18T05:01:20.780Z,15.30
2023-02-18T05:03:49.242Z,15.10
2023-02-18T05:06:17.512Z,15.13
2023-02-18T05:08:45.848Z,16.40
2023-02-18T05:11:15.567Z,15.87
2023-02-18T05:13:43.869Z,17.10
2023-02-18T05:16:12.525Z,17.87
2023-02-18T05:18:40.989Z,18.03
2023-02-18T05:21:09.528Z,18.07
2023-02-18T05:23:37.902Z,19.07
2023-02-18T05:26:06.951Z,20.47
2023-02-18T05:28:36.792Z,19.63
2023-02-18T05:31:05.601Z,21.67
2023-02-18T05:33:33.951Z,22.00
2023-02-18T05:36:03.058Z,22.90
2023-02-18T05:38:31.459Z,22.83
2023-02-18T05:40:59.740Z,25.03
2023-02-18T05:43:28.060Z,25.30
2023-02-18T05:45:57.825Z,28.03
2023-02-18T05:48:26.186Z,28.00
2023-02-18T05:50:55.970Z,26.87
2023-02-18T05:53:24.464Z,27.47
2023-02-18T05:55:52.820Z,27.10
2023-02-18T05:58:21.177Z,26.70
2023-02-18T06:00:49.514Z,26.60
2023-02-18T06:03:19.283Z,26.47
2023-02-18T06:05:51.384Z,25.60
2023-02-18T06:08:20.401Z,26.80
2023-02-18T06:10:48.835Z,27.73
2023-02-18T06:13:17.418Z,25.57
2023-02-18T06:15:45.971Z,25.90
2023-02-18T06:18:14.395Z,22.13
2023-02-18T06:20:44.219Z,22.87
2023-02-18T06:23:12.508Z,22.87
2023-02-18T06:25:41.123Z,20.03
2023-02-18T06:28:09.664Z,20.73
2023-02-18T06:30:38.146Z,18.43
2023-02-18T06:33:06.801Z,17.00
2023-02-18T06:35:36.098Z,17.37
2023-02-18T06:38:05.796Z,15.93
2023-02-18T06:40:34.378Z,15.37
2023-02-18T06:43:02.685Z,13.27
2023-02-18T06:45:31.057Z,13.67
2023-02-18T06:47:59.402Z,12.40
2023-02-18T06:50:27.765Z,12.03
2023-02-18T06:52:56.146Z,11.13
2023-02-18T06:55:26.098Z,12.00
2023-02-18T06:57:54.392Z,11.33
2023-02-18T07:00:23.879Z,12.20
2023-02-18T07:02:52.415Z,11.00
2023-02-18T07:05:20.890Z,10.77
2023-02-18T07:07:49.250Z,12.03
2023-02-18T07:10:17.607Z,10.73
2023-02-18T07:12:47.451Z,11.13
2023-02-18T07:15:15.984Z,9.97
2023-02-18T07:17:44.602Z,8.87
2023-02-18T07:20:13.360Z,8.87
2023-02-18T07:22:41.728Z,9.43
2023-02-18T07:25:10.200Z,9.13
2023-02-18T07:27:39.084Z,10.50
2023-02-18T07:30:10.568Z,10.33
2023-02-18T07:32:39.263Z,12.37
2023-02-18T07:35:08.629Z,13.33
2023-02-18T07:37:36.916Z,13.50
2023-02-18T07:40:06.690Z,14.67
2023-02-18T07:42:35.689Z,13.80
2023-02-18T07:45:04.062Z,14.03
2023-02-18T07:47:33.695Z,13.03
2023-02-18T07:50:02.126Z,12.20
2023-02-18T07:52:30.395Z,14.23
2023-02-18T07:54:58.750Z,13.73
2023-02-18T07:57:27.100Z,12.87
2023-02-18T07:59:55.441Z,11.87
2023-02-18T08:02:25.628Z,11.60
2023-02-18T08:04:55.977Z,11.57
2023-02-18T08:07:24.740Z,12.30
2023-02-18T08:09:53.085Z,11.17
2023-02-18T08:12:21.419Z,11.70
2023-02-18T08:14:49.667Z,11.13
2023-02-18T08:17:18.282Z,11.00
2023-02-18T08:19:46.618Z,9.07
2023-02-18T08:22:16.212Z,10.87
2023-02-18T08:24:44.491Z,9.93
2023-02-18T08:27:13.492Z,11.43
2023-02-18T08:29:41.790Z,10.43
2023-02-18T08:32:10.122Z,11.13
2023-02-18T08:34:38.583Z,10.20
2023-02-18T08:37:07.311Z,10.03
2023-02-18T08:39:39.778Z,10.23
2023-02-18T08:42:08.548Z,8.50
2023-02-18T08:44:36.909Z,9.70
2023-02-18T08:47:05.706Z,8.60
2023-02-18T08:49:54.933Z,7.73
2023-02-18T08:52:24.074Z,7.90
2023-02-18T08:54:53.772Z,7.20
2023-02-18T08:57:22.143Z,7.83
2023-02-18T08:59:50.523Z,7.47
2023-02-18T09:02:18.789Z,7.00
2023-02-18T09:04:47.287Z,6.90
2023-02-18T09:07:15.735Z,7.17
2023-02-18T09:09:44.185Z,6.97
2023-02-18T09:12:13.817Z,7.03
2023-02-18T09:14:42.660Z,6.63
2023-02-18T09:17:11.011Z,5.70
2023-02-18T09:19:39.294Z,6.87
2023-02-18T09:22:07.661Z,6.87
2023-02-18T09:24:39.244Z,5.73
2023-02-18T09:27:10.235Z,5.27
2023-02-18T09:29:43.381Z,6.00
2023-02-18T09:32:19.986Z,4.87
2023-02-18T09:34:53.887Z,4.50
2023-02-18T09:37:22.190Z,5.33
2023-02-18T09:39:50.713Z,5.33
2023-02-18T09:42:31.478Z,5.40
2023-02-18T09:45:04.516Z,5.00
2023-02-18T09:47:37.210Z,4.20
2023-02-18T09:50:13.898Z,4.30
2023-02-18T09:52:42.267Z,3.90
2023-02-18T09:55:21.677Z,4.27
2023-02-18T09:57:53.273Z,4.53
2023-02-18T10:00:28.375Z,4.23
2023-02-18T10:02:59.850Z,4.17
2023-02-18T10:05:31.011Z,4.63
2023-02-18T10:08:05.370Z,4.10
2023-02-18T10:10:41.190Z,4.83
2023-02-18T10:13:15.645Z,4.00
2023-02-18T10:15:47.511Z,3.90
2023-02-18T10:21:09.108Z,3.17
2023-02-18T10:23:41.929Z,4.00
2023-02-18T10:26:16.393Z,3.40
2023-02-18T10:28:45.711Z,3.87
2023-02-18T10:31:22.083Z,4.27
2023-02-18T10:34:00.840Z,5.57
2023-02-18T10:36:37.552Z,4.13
2023-02-18T10:39:47.381Z,4.13
2023-02-18T10:42:32.035Z,2.93
2023-02-18T10:45:14.347Z,3.90
2023-02-18T10:47:56.482Z,4.53
2023-02-18T10:50:31.922Z,4.40
2023-02-18T10:53:11.366Z,3.77
2023-02-18T10:55:42.390Z,3.50
2023-02-18T10:58:28.881Z,3.67
2023-02-18T11:00:57.818Z,4.30
2023-02-18T11:03:37.582Z,3.70
2023-02-18T11:06:06.770Z,3.20
2023-02-18T11:08:44.387Z,4.03
2023-02-18T11:11:22.273Z,3.73
2023-02-18T11:13:55.673Z,3.50
2023-02-18T11:16:25.110Z,3.07
2023-02-18T11:18:54.780Z,3.50
2023-02-18T11:21:30.943Z,3.80
2023-02-18T11:24:08.665Z,3.53
2023-02-18T11:26:38.491Z,3.60
2023-02-18T11:29:13.173Z,3.10
2023-02-18T11:31:45.343Z,3.33
2023-02-18T11:34:21.613Z,3.73
2023-02-18T11:36:52.295Z,3.47
2023-02-18T11:39:24.526Z,3.47
2023-02-18T11:41:58.035Z,3.40
2023-02-18T11:44:31.630Z,3.70
2023-02-18T11:47:03.199Z,3.93
2023-02-18T11:49:35.149Z,3.60
2023-02-18T11:52:18.697Z,4.10
2023-02-18T11:55:04.612Z,3.67
2023-02-18T11:57:34.028Z,3.00
2023-02-18T12:00:03.557Z,3.70
2023-02-18T12:02:37.651Z,3.30
2023-02-18T12:05:15.906Z,3.83
2023-02-18T12:07:47.425Z,3.53
2023-02-18T12:10:23.403Z,3.23
2023-02-18T12:13:02.176Z,3.60
2023-02-18T12:15:42.559Z,3.30
2023-02-18T12:18:33.742Z,3.83
2023-02-18T12:21:23.024Z,3.53
2023-02-18T12:24:04.849Z,3.37
2023-02-18T12:26:47.373Z,2.97
2023-02-18T12:29:45.040Z,2.97
2023-02-18T12:32:28.608Z,3.60
2023-02-18T12:35:17.193Z,3.97
2023-02-18T12:38:04.285Z,3.50
2023-02-18T12:40:52.944Z,3.40
2023-02-18T12:43:37.512Z,3.77
2023-02-18T12:46:49.086Z,3.13
2023-02-18T12:49:57.139Z,3.17
2023-02-18T12:52:39.903Z,2.57
2023-02-18T12:55:31.475Z,3.20
2023-02-18T12:58:10.781Z,3.13
2023-02-18T13:01:02.282Z,2.90
2023-02-18T13:04:18.478Z,3.50
2023-02-18T13:07:09.773Z,5.17
2023-02-18T13:10:02.900Z,2.47
2023-02-18T13:12:43.915Z,2.40
2023-02-18T13:15:19.916Z,2.30
2023-02-18T13:17:50.299Z,2.37
2023-02-18T13:20:27.281Z,2.70
2023-02-18T13:22:55.771Z,2.33
2023-02-18T13:25:25.037Z,2.20
2023-02-18T13:28:10.020Z,2.73
2023-02-18T13:30:46.754Z,2.73
2023-02-18T13:33:23.794Z,2.20
2023-02-18T13:36:01.756Z,2.33
2023-02-18T13:38:59.617Z,2.20
2023-02-18T13:41:28.717Z,1.60
2023-02-18T13:43:58.405Z,2.20
2023-02-18T13:46:28.349Z,2.20
2023-02-18T13:49:07.466Z,2.17
2023-02-18T13:51:43.265Z,2.00
2023-02-18T13:54:22.541Z,1.47
2023-02-18T13:56:55.501Z,1.60
2023-02-18T13:59:34.448Z,1.60
2023-02-18T14:02:34.252Z,1.83
2023-02-18T14:05:22.744Z,2.10
2023-02-18T14:07:53.703Z,1.90
2023-02-18T14:10:35.957Z,1.90
2023-02-18T14:13:27.106Z,2.53
2023-02-18T14:16:02.010Z,2.17
2023-02-18T14:18:56.540Z,2.63
2023-02-18T14:21:39.248Z,2.17
2023-02-18T14:24:11.381Z,2.07
2023-02-18T14:26:46.128Z,2.43
2023-02-18T14:29:22.320Z,2.60
2023-02-18T14:31:57.843Z,3.03
2023-02-18T14:35:13.534Z,2.67
2023-02-18T14:38:20.495Z,2.40
2023-02-18T14:41:20.418Z,2.27
2023-02-18T14:44:33.981Z,2.70
2023-02-18T14:47:25.318Z,2.23
2023-02-18T14:49:56.019Z,2.30
2023-02-18T14:52:32.362Z,2.60
2023-02-18T14:55:04.688Z,2.23
2023-02-18T14:57:40.506Z,1.97
2023-02-18T15:00:18.678Z,1.63
2023-02-18T15:02:51.507Z,2.60
2023-02-18T15:05:23.251Z,2.47
2023-02-18T15:08:03.012Z,2.50
2023-02-18T15:10:39.679Z,2.57
2023-02-18T15:13:14.747Z,2.50
2023-02-18T15:15:45.665Z,2.17
2023-02-18T15:18:29.149Z,2.80
2023-02-18T15:20:57.764Z,2.97
2023-02-18T15:23:26.317Z,3.23
2023-02-18T15:25:55.667Z,2.90
2023-02-18T15:28:28.083Z,2.77
2023-02-18T15:30:59.092Z,2.93
2023-02-18T15:33:29.818Z,2.73
2023-02-18T15:36:03.395Z,2.73
2023-02-18T15:38:32.290Z,2.87
2023-02-18T15:41:02.084Z,2.60
2023-02-18T15:43:32.216Z,3.40
2023-02-18T15:46:00.652Z,3.40
2023-02-18T15:48:40.989Z,2.90
2023-02-18T15:51:17.744Z,2.93
2023-02-18T15:53:50.718Z,2.73
2023-02-18T15:56:23.497Z,2.80
2023-02-18T15:58:52.172Z,3.63
2023-02-18T16:01:29.611Z,2.60
2023-02-18T16:04:00.096Z,3.03
2023-02-18T16:06:32.411Z,2.93
2023-02-18T16:09:04.354Z,3.07
2023-02-18T16:11:37.758Z,3.57
2023-02-18T16:14:06.639Z,3.87
2023-02-18T16:16:36.969Z,2.80
2023-02-18T16:19:06.664Z,3.30
2023-02-18T16:21:40.088Z,2.77
2023-02-18T16:24:26.353Z,3.27
2023-02-18T16:26:58.628Z,3.37
2023-02-18T16:29:35.946Z,3.63
2023-02-18T16:32:04.568Z,3.13
2023-02-18T16:34:35.813Z,3.50
2023-02-18T16:37:22.253Z,3.20
2023-02-18T16:39:54.932Z,3.27
2023-02-18T16:42:23.329Z,3.50
2023-02-18T16:44:51.958Z,3.40
2023-02-18T16:47:21.543Z,3.10
2023-02-18T16:49:52.824Z,3.97
2023-02-18T16:52:21.520Z,3.73
2023-02-18T16:54:50.278Z,3.60
2023-02-18T16:57:18.577Z,4.13
2023-02-18T16:59:46.994Z,3.53
2023-02-18T17:02:20.280Z,3.60
2023-02-18T17:04:50.034Z,3.90
2023-02-18T17:07:18.538Z,3.30
2023-02-18T17:09:46.827Z,4.00
2023-02-18T17:12:16.027Z,3.70
2023-02-18T17:14:46.816Z,3.73
2023-02-18T17:17:17.953Z,3.83
2023-02-18T17:19:46.284Z,4.63
2023-02-18T17:22:16.319Z,4.40
2023-02-18T17:24:44.748Z,3.80
2023-02-18T17:27:13.079Z,3.70
2023-02-18T17:29:41.355Z,4.13
2023-02-18T17:32:10.096Z,4.70
2023-02-18T17:34:41.004Z,4.00
2023-02-18T17:37:15.258Z,3.83
2023-02-18T17:39:43.716Z,4.17
2023-02-18T17:42:12.933Z,4.73
2023-02-18T17:44:42.319Z,4.40
2023-02-18T17:47:10.638Z,3.83
2023-02-18T17:49:39.001Z,4.33
2023-02-18T17:52:07.335Z,4.37
2023-02-18T17:54:37.089Z,3.87
2023-02-18T17:57:05.318Z,4.00
2023-02-18T17:59:33.597Z,4.33
2023-02-18T18:02:01.831Z,3.57
2023-02-18T18:04:30.235Z,4.47
2023-02-18T18:06:58.463Z,4.17
2023-02-18T18:09:26.711Z,4.20
2023-02-18T18:11:56.415Z,3.60
2023-02-18T18:14:24.759Z,3.97
2023-02-18T18:16:53.085Z,4.30
2023-02-18T18:19:21.399Z,4.87
2023-02-18T18:21:49.650Z,4.33
2023-02-18T18:24:17.863Z,5.27
2023-02-18T18:26:46.277Z,4.60
2023-02-18T18:29:15.950Z,5.33
2023-02-18T18:31:44.297Z,4.63
2023-02-18T18:34:17.331Z,3.93
2023-02-18T18:36:45.911Z,4.47
2023-02-18T18:39:14.169Z,5.10
2023-02-18T18:41:42.465Z,4.57
2023-02-18T18:44:12.348Z,3.97
2023-02-18T18:46:42.191Z,4.40
2023-02-18T18:49:10.459Z,3.93
2023-02-18T18:51:39.262Z,4.60
2023-02-18T18:54:07.662Z,4.17
2023-02-18T18:56:37.860Z,4.97
2023-02-18T18:59:08.571Z,5.33
2023-02-18T19:01:36.961Z,4.87
2023-02-18T19:04:06.853Z,5.20
2023-02-18T19:06:35.404Z,5.17
2023-02-18T19:09:03.672Z,4.37
2023-02-18T19:11:31.978Z,4.50
2023-02-18T19:14:00.284Z,4.70
2023-02-18T19:16:36.015Z,5.33
2023-02-18T19:19:04.451Z,5.17
2023-02-18T19:21:34.167Z,5.27
2023-02-18T19:24:02.498Z,5.60
2023-02-18T19:26:30.761Z,5.30
2023-02-18T19:28:59.164Z,5.57
2023-02-18T19:31:28.317Z,5.20
2023-02-18T19:33:56.695Z,6.00
2023-02-18T19:36:25.038Z,6.10
2023-02-18T19:38:54.687Z,5.57
2023-02-18T19:41:23.116Z,5.13
2023-02-18T19:43:51.454Z,5.80
2023-02-18T19:46:20.586Z,5.47
2023-02-18T19:48:51.259Z,5.40
2023-02-18T19:51:20.644Z,5.40
2023-02-18T19:53:49.128Z,5.67
2023-02-18T19:56:18.785Z,5.83
2023-02-18T19:58:47.112Z,5.67
2023-02-18T20:01:17.464Z,5.60
2023-02-18T20:03:47.387Z,6.00
2023-02-18T20:06:17.601Z,5.87
2023-02-18T20:08:46.162Z,5.90
2023-02-18T20:11:14.546Z,6.10
2023-02-18T20:13:44.779Z,5.90
2023-02-18T20:16:13.711Z,7.00
2023-02-18T20:18:42.104Z,6.43
2023-02-18T20:21:12.601Z,7.97
2023-02-18T20:23:40.999Z,6.63
2023-02-18T20:26:10.108Z,7.23
2023-02-18T20:28:38.597Z,7.43
2023-02-18T20:31:11.265Z,6.70
2023-02-18T20:33:42.286Z,6.17
2023-02-18T20:36:12.572Z,6.43
2023-02-18T20:38:41.126Z,6.77
2023-02-18T20:41:14.048Z,6.47
2023-02-18T20:43:42.766Z,5.87
2023-02-18T20:46:15.831Z,6.40
2023-02-18T20:48:44.450Z,6.80
2023-02-18T20:51:15.152Z,5.50
2023-02-18T20:53:45.687Z,6.50
2023-02-18T20:56:14.464Z,5.90
2023-02-18T20:58:43.368Z,5.97
2023-02-18T21:01:15.058Z,5.70
2023-02-18T21:03:44.386Z,5.37
2023-02-18T21:06:15.990Z,6.77
2023-02-18T21:08:46.854Z,5.50
2023-02-18T21:11:17.725Z,5.47
2023-02-18T21:13:47.789Z,6.73
2023-02-18T21:16:19.152Z,6.60
2023-02-18T21:18:47.431Z,6.67
2023-02-18T21:21:16.309Z,5.63
2023-02-18T21:23:44.761Z,6.00
2023-02-18T21:26:16.024Z,6.67
2023-02-18T21:28:48.111Z,6.43
2023-02-18T21:31:21.854Z,7.60
2023-02-18T21:33:50.460Z,6.37
2023-02-18T21:36:20.165Z,7.03
2023-02-18T21:38:53.469Z,6.90
2023-02-18T21:41:21.922Z,7.17
2023-02-18T21:43:50.436Z,6.87
2023-02-18T21:46:24.204Z,7.30
2023-02-18T21:49:06.627Z,7.80
2023-02-18T21:51:57.963Z,7.13
2023-02-18T21:54:29.356Z,7.57
2023-02-18T21:57:02.971Z,8.23
2023-02-18T21:59:42.567Z,7.17
2023-02-18T22:02:18.820Z,7.60
2023-02-18T22:04:48.379Z,7.80
2023-02-18T22:07:17.781Z,7.87
2023-02-18T22:09:48.479Z,8.83
2023-02-18T22:12:17.922Z,9.03
2023-02-18T22:14:46.212Z,9.13
2023-02-18T22:17:17.075Z,9.03
2023-02-18T22:19:46.241Z,8.73
2023-02-18T22:22:14.598Z,9.30
2023-02-18T22:24:42.887Z,9.10
2023-02-18T22:27:11.885Z,8.87
2023-02-18T22:29:40.488Z,9.30
2023-02-18T22:32:08.961Z,9.03
2023-02-18T22:34:38.835Z,9.90
2023-02-18T22:37:07.441Z,10.07
2023-02-18T22:39:35.811Z,11.07
2023-02-18T22:42:04.150Z,10.90
2023-02-18T22:44:32.647Z,11.70
2023-02-18T22:47:01.077Z,12.13
2023-02-18T22:49:29.341Z,13.27
2023-02-18T22:51:59.010Z,17.70
2023-02-18T22:54:27.318Z,18.57
2023-02-18T22:56:55.836Z,23.10
2023-02-18T22:59:24.081Z,26.60
2023-02-18T23:01:53.251Z,26.30
2023-02-18T23:04:22.793Z,27.63
2023-02-18T23:06:52.288Z,27.77
2023-02-18T23:09:24.199Z,28.23
2023-02-18T23:11:54.352Z,29.70
2023-02-18T23:14:23.116Z,29.73
2023-02-18T23:17:12.730Z,28.87
2023-02-18T23:19:43.204Z,29.77
2023-02-18T23:22:14.016Z,27.27
2023-02-18T23:24:46.684Z,28.57
2023-02-18T23:27:16.627Z,27.10
2023-02-18T23:29:44.979Z,26.17
2023-02-18T23:32:13.688Z,26.30
2023-02-18T23:34:42.000Z,26.63
2023-02-18T23:37:11.037Z,26.37
2023-02-18T23:39:39.940Z,24.27
2023-02-18T23:42:10.061Z,24.23
2023-02-18T23:44:38.565Z,23.43
2023-02-18T23:47:08.474Z,24.33
2023-02-18T23:49:36.817Z,24.03
2023-02-18T23:52:05.228Z,23.03
2023-02-18T23:54:33.663Z,23.60
2023-02-18T23:57:02.054Z,24.87
2023-02-18T23:59:31.761Z,24.37
